MAPA DE AEROPUERTO

INFORMACIÓN METAR y TAF


Deprecated: The each() function is deprecated. This message will be suppressed on further calls in /home/customer/www/clickair-va.com/public_html/VAM/vam/helpers/get_metar.php on line 20
METAR FOR HCMM
ADDS - METARS form results

(0328 UTC 25 May 2022)
Data provider http://aviationweather.gov/metar/data/
 
METAR text: HCMM 250300Z 20012KT 9999 SCT017 27/24 Q1011
Conditions at: HCMM (MOGADISHU , SO) observed 0300 UTC 25 May 2022
Temperature: 27.0°C (81°F)
Dewpoint: 24.0°C (75°F) [RH = 84%]
Pressure (altimeter): 29.85 inches Hg (1011.0 mb)
Winds: from the SSW (200 degrees) at 14 MPH (12 knots; 6.2 m/s)
Visibility: 6 or more miles (10+ km)
Ceiling: at least 12,000 feet AGL
Clouds: scattered clouds at 1700 feet AGL
Weather: no significant weather observed at this time